Airfield :
LOGIN :

Register | Disclaimer

   EN    FR    IT 

 










Legend :    VFR   Marginal VFR   IFR   Intensive IFR   Very Intensive IFR
Visi :
Ceiling :
>= 8 km
>= 3000ft
5 to 8 km
1000 to 3000 ft
1500m to 5 km
500 to 1000 ft
800 to 1500m
200 to 500 ft
< 800m
< 200 ft
Symbols :   Thunderstorms  Fog  Heavy snow  Heavy precipitations  Wind > 20 kt
SIGMETs :     Misc.  Thunderstorms  Icing  Turbulence  Mountain Waves  Volcanic Ashes







- Airport Elevation : 1234 ft
- IATA code : LUX


ELLX - Luxembourg Findel

CURRENT METAR :
  • 210250Z 05011KT CAVOK 12/10 Q1015 NOSIG

EXPIRED METARs :
  • 210220Z AUTO 05011KT 9999 BKN067/// 12/10 Q1015 NOSIG
  • 210150Z AUTO 04013KT 9999 BKN059/// 12/10 Q1016 NOSIG
  • 210120Z AUTO 04013KT 9999 SHRA FEW006/// OVC058/// 13/10 Q1016 NOSIG
  • 210050Z AUTO 04014KT 9999 FEW044/// BKN051/// OVC088/// 12/11 Q1016 NOSIG
  • 210020Z AUTO 04012KT 9999 FEW032/// BKN064/// BKN098/// 12/11 Q1017 NOSIG

TAF TAF ELLX
Valid from the 21 at 00:00 until the 22 at 06:00 UTC


202300Z 2100/2206 05009KT CAVOK
TEMPO 2100/2102 5000 SHRA SCT030TCU BKN040
TEMPO 2103/2107 4000 BR SCT006
BECMG 2108/2110 12007KT SCT035
TEMPO 2111/2123 7000 -SHRA SCT030TCU BKN035
PROB40
TEMPO 2115/2120 4000 TSRA BKN030CB
BECMG 2202/2204 22005KT 5000 BR SCT007
ATIS : +352 4798 27300
Met : +352 4798 27010 / 27050
No reported NOTAMs for that airfield.



MET'MAP, your aeronautical weather chart ! - Copyright ORBIFLY December 2007 - Disclaimer

ORBIFLY MET'MAP TEAM :

Programming & Development : Alexandra Zaïnal
Concept & Development : Baudouin d'Aumeries
Co-Development & Prog : Marc-Olivier Méhu
Technical & hardware support : Manuel Goepfert

Contact : metmap@orbifly.com




SOURCES & CREDITS :

   NOAA